• Join FlightAware (Why Join?)
  • Login
  • US Flag 
09:27PM EDT


 

Airport Tracker/Info


-or-


 

Live Flight TrackerFlight Track Log ✈ N400CE ✈ 26-May-2014 ✈ KSPG - KFFC

Flight Track Log - Related Links

Times and Time Zones

All times are in EDT time to prevent confusion due to time zone crossing. See the N400CE flight status page for this flight to view local times or setup timezone preferences in your user account.

Time Position Orientation Groundspeed Altitude Reporting Facility
EDT Latitude Longitude Course Direction KTS MPH feet Rate Location/Type
11:42AM 28.0333 -82.6500 196° South 168 193 2,100  Level Tampa TRACON
11:43AM 27.9833 -82.6667 196° South 175 201 1,800 -180 Descending Tampa TRACON
11:44AM 27.9333 -82.6667 180° South 168 193 1,800 -120 Level Tampa TRACON
11:45AM 27.8833 -82.6500 164° South 168 193 1,600 -240 Descending Tampa TRACON
11:46AM 27.8333 -82.6500 180° South 171 197 1,400 -180 Descending Tampa TRACON
11:47AM 27.8000 -82.6500 180° South 158 182 1,300 -480 Descending Tampa TRACON
11:48AM 27.7667 -82.6500 180° South 91 105 500 -60 Descending Tampa TRACON
12:27PM 27.7833 -82.6667 291° West 143 165 900  Climbing Tampa TRACON
12:28PM 29.2281 -82.9528 349° North  Level FlightAware Approximate
12:28PM 27.7833 -82.7167 270° West 145 167 1,800  Level Tampa TRACON
12:29PM 29.2658 -82.9615 349° North  Level FlightAware Approximate
12:29PM 27.7833 -82.7500 270° West 143 165 2,500  Level Tampa TRACON
12:30PM 29.3034 -82.9701 349° North  Level FlightAware Approximate
12:30PM 27.8000 -82.8000 291° West 153 176 3,100  Level Tampa TRACON
12:31PM 29.3411 -82.9788 349° North  Level FlightAware Approximate
12:31PM 27.8500 -82.8000 360° North 149 171 3,800  Level Tampa TRACON
12:32PM 27.8833 -82.8167 336° Northwest 154 177 4,000 240 Climbing Tampa TRACON
12:33PM 27.9333 -82.8167 360° North 177 204 4,300 360 Climbing Tampa TRACON
12:34PM 27.9833 -82.8333 344° North 166 191 4,800 420 Climbing Tampa TRACON
12:35PM 28.0167 -82.8333 360° North 159 183 5,300 420 Climbing Tampa TRACON
12:36PM 28.0667 -82.8500 344° North 161 185 5,600 420 Climbing Tampa TRACON
12:37PM 28.1000 -82.8500 360° North 158 182 6,100 420 Climbing Tampa TRACON
12:38PM 28.1500 -82.8500 360° North 155 178 6,400 360 Climbing Tampa TRACON
12:39PM 28.2142 -82.8431 North 159 183 7,100 360 Climbing Miami Center
12:40PM 28.2500 -82.8456 356° North 158 182 7,400 420 Climbing Jacksonville Center
12:41PM 28.2939 -82.8456 360° North 158 182 7,900 420 Climbing Jacksonville Center
12:42PM 28.3397 -82.8453 360° North 158 182 8,300 420 Climbing Jacksonville Center
12:43PM 28.3836 -82.8572 347° North 158 182 8,800 540 Climbing Jacksonville Center
12:44PM 28.4275 -82.8642 352° North 158 182 9,400 480 Climbing Jacksonville Center
12:45PM 28.4733 -82.8714 352° North 163 188 9,800 360 Climbing Jacksonville Center
12:46PM 28.5192 -82.8808 350° North 163 188 10,200 420 Climbing Jacksonville Center
12:47PM 28.5631 -82.8903 349° North 163 188 10,700 480 Climbing Jacksonville Center
12:48PM 28.6111 -82.8950 355° North 163 188 11,200 420 Climbing Jacksonville Center
12:49PM 28.6528 -82.9019 352° North 163 188 11,600 420 Climbing Jacksonville Center
12:50PM 28.6947 -82.9067 354° North 163 188 12,100 480 Climbing Jacksonville Center
12:51PM 28.7406 -82.9139 352° North 163 188 12,600 420 Climbing Jacksonville Center
12:52PM 28.7844 -82.9211 352° North 163 188 13,000 480 Climbing Jacksonville Center
12:53PM 28.8303 -82.9281 352° North 163 188 13,600 420 Climbing Jacksonville Center
12:54PM 28.8761 -82.9353 352° North 163 188 13,900 180 Climbing Jacksonville Center
12:55PM 28.9222 -82.9425 352° North 163 188 14,000 60 Climbing Jacksonville Center
12:56PM 28.9722 -82.9472 355° North 163 188 14,100  Climbing Jacksonville Center
12:57PM 29.0222 -82.9519 355° North 169 194 14,100  Level Jacksonville Center
12:58PM 29.0703 -82.9567 355° North 169 194 14,100  Level Jacksonville Center
12:59PM 29.1161 -82.9758 340° North 169 194 14,100  Level Jacksonville Center
01:00PM 29.1642 -82.9925 343° North 174 200 14,100  Level Jacksonville Center
01:01PM 29.2122 -83.0092 343° North 174 200 14,100 -60 Level Jacksonville Center
01:02PM 29.2603 -83.0258 343° North 174 200 14,000 -60 Descending Jacksonville Center
01:03PM 29.3061 -83.0403 345° North 174 200 14,000  Level Jacksonville Center
01:04PM 29.3542 -83.0569 343° North 174 200 14,000  Level Jacksonville Center
01:05PM 29.4000 -83.0736 342° North 169 194 14,000  Level Jacksonville Center
01:06PM 29.4458 -83.0906 342° North 169 194 14,000  Level Jacksonville Center
01:07PM 29.4958 -83.1097 342° North 169 194 14,100  Climbing Jacksonville Center
01:08PM 29.5461 -83.1314 339° North 174 200 14,100  Level Jacksonville Center
01:09PM 29.5939 -83.1481 343° North 180 207 14,100  Level Jacksonville Center
01:10PM 29.6400 -83.1650 342° North 180 207 14,100  Level Jacksonville Center
01:11PM 29.6878 -83.1842 341° North 180 207 14,100  Level Jacksonville Center
01:12PM 29.7339 -83.2011 342° North 175 201 14,100 -60 Level Jacksonville Center
01:13PM 29.7797 -83.2181 342° North 175 201 14,000 -60 Descending Jacksonville Center
01:14PM 29.8256 -83.2372 340° North 170 196 14,000  Level Jacksonville Center
01:15PM 29.8756 -83.2542 344° North 177 204 14,000  Level Jacksonville Center
01:16PM 29.9278 -83.2714 344° North 177 204 14,000  Level Jacksonville Center
01:17PM 29.9756 -83.2906 341° North 177 204 14,000  Level Jacksonville Center
01:18PM 30.0217 -83.3100 340° North 177 204 14,000  Level Jacksonville Center
01:19PM 30.0694 -83.3247 345° North 177 204 14,000  Level Jacksonville Center
01:20PM 30.1175 -83.3442 341° North 177 204 14,000  Level Jacksonville Center
01:21PM 30.1656 -83.3611 343° North 177 204 14,000  Level Jacksonville Center
01:22PM 30.2133 -83.3806 341° North 172 198 14,000  Level Jacksonville Center
01:23PM 30.2614 -83.3975 343° North 172 198 14,000  Level Jacksonville Center
01:24PM 30.3072 -83.4147 342° North 172 198 14,000  Level Jacksonville Center
01:25PM 30.3553 -83.4342 341° North 172 198 14,000  Level Jacksonville Center
01:25PM 30.3678 -83.4392 341° North 180 207 14,000  Level Jacksonville Center
01:26PM 30.4031 -83.4489 347° North 172 198 14,000  Level Jacksonville Center
01:26PM 30.4136 -83.4539 338° Northwest 178 205 14,000  Level Jacksonville Center
01:27PM 30.4511 -83.4661 344° North 172 198 14,000  Level Jacksonville Center
01:28PM 30.4636 -83.4733 334° Northwest 179 206 14,000  Level Jacksonville Center
01:28PM 30.4969 -83.4856 342° North 172 198 14,000  Level Jacksonville Center
01:29PM 30.5094 -83.4906 341° North 177 204 14,000  Level Jacksonville Center
01:29PM 30.5447 -83.5006 346° North 172 198 14,000  Level Jacksonville Center
01:30PM 30.5572 -83.5078 334° Northwest 177 204 14,000  Level Jacksonville Center
01:30PM 30.5928 -83.5175 347° North 172 198 14,000  Level Jacksonville Center
01:31PM 30.6114 -83.5275 335° Northwest 177 204 14,000  Level Jacksonville Center
01:31PM 30.6386 -83.5347 347° North 172 198 14,000  Level Jacksonville Center
01:32PM 30.6575 -83.5444 336° Northwest 178 205 14,000  Level Jacksonville Center
01:32PM 30.6867 -83.5497 351° North 172 198 14,000  Level Jacksonville Center
01:33PM 30.7075 -83.5642 329° Northwest 178 205 14,000  Level Jacksonville Center
01:33PM 30.7242 -83.5669 352° North 172 198 14,000  Level Jacksonville Center
01:34PM 30.7511 -83.5814 335° Northwest 178 205 14,000  Level Jacksonville Center
01:34PM 30.7783 -83.5889 347° North 180 207 14,000  Level Jacksonville Center
01:35PM 30.8011 -83.5989 339° North 179 206 14,000  Level Jacksonville Center
01:35PM 30.8261 -83.6039 350° North 186 214 14,000  Level Jacksonville Center
01:36PM 30.8742 -83.6236 341° North 186 214 14,000  Level Jacksonville Center
01:37PM 30.9200 -83.6408 342° North 180 207 14,000  Level Jacksonville Center
01:38PM 30.9678 -83.6631 338° Northwest 180 207 14,000  Level Jacksonville Center
01:39PM 31.0158 -83.6806 343° North 180 207 14,000  Level Jacksonville Center
01:40PM 31.0617 -83.7003 340° North 180 207 14,000  Level Jacksonville Center
01:41PM 31.1094 -83.7200 341° North 180 207 14,000  Level Jacksonville Center
01:42PM 31.1572 -83.7400 340° North 180 207 14,000  Level Jacksonville Center
01:43PM 31.2031 -83.7622 337° Northwest 180 207 14,000  Level Jacksonville Center
01:44PM 31.2511 -83.7819 341° North 175 201 14,000  Level Jacksonville Center
01:45PM 31.2967 -83.8042 337° Northwest 175 201 14,000  Level Jacksonville Center
01:46PM 31.3447 -83.8242 340° North 175 201 14,000  Level Jacksonville Center
01:47PM 31.3925 -83.8442 340° North 175 201 14,000  Level Jacksonville Center
01:48PM 31.4403 -83.8642 340° North 175 201 14,000  Level Jacksonville Center
01:49PM 31.4819 -83.8817 340° North 175 201 14,000  Level Jacksonville Center
01:50PM 31.5300 -83.9017 340° North 175 201 14,000  Level Jacksonville Center
01:51PM 31.5797 -83.9217 341° North 175 201 14,000  Level Jacksonville Center
01:52PM 31.6278 -83.9442 338° Northwest 175 201 14,000  Level Jacksonville Center
01:53PM 31.6861 -83.9681 341° North 174 200 14,100  Climbing Atlanta Center
01:54PM 31.7342 -83.9900 339° North 174 200 14,100  Level Atlanta Center
01:55PM 31.7822 -84.0094 341° North 174 200 14,100  Level Atlanta Center
01:56PM 31.8300 -84.0292 341° North 179 206 14,100  Level Atlanta Center
01:57PM 31.8803 -84.0511 340° North 179 206 14,100  Level Atlanta Center
01:58PM 31.9283 -84.0731 339° North 179 206 14,100 -60 Level Atlanta Center
01:59PM 31.9761 -84.0903 343° North 184 212 14,000 -60 Descending Atlanta Center
02:00PM 32.0264 -84.1125 339° North 184 212 14,000 -60 Level Atlanta Center
02:01PM 32.0722 -84.1319 340° North 184 212 13,900 -60 Descending Atlanta Center
02:02PM 32.1222 -84.1517 342° North 189 217 13,900  Level Atlanta Center
02:03PM 32.1722 -84.1714 342° North 189 217 13,900  Level Atlanta Center
02:04PM 32.2203 -84.1911 341° North 189 217 13,900  Level Atlanta Center
02:05PM 32.2703 -84.2083 344° North 189 217 13,900  Level Atlanta Center
02:06PM 32.3183 -84.2256 343° North 189 217 13,900  Level Atlanta Center
02:07PM 32.3683 -84.2431 344° North 189 217 13,900  Level Atlanta Center
02:08PM 32.4186 -84.2578 346° North 189 217 13,900 -300 Level Atlanta Center
02:09PM 32.4728 -84.2728 347° North 189 217 13,400 -600 Descending Atlanta Center
02:10PM 32.5269 -84.2900 345° North 189 217 12,700 -1,020 Descending Atlanta Center
02:11PM 32.5833 -84.3050 347° North 196 226 11,400 -1,440 Descending Atlanta Center
02:12PM 32.6458 -84.3200 349° North 206 237 9,900 -1,380 Descending Atlanta Center
02:13PM 32.7044 -84.3300 352° North 212 244 8,700 -1,080 Descending Atlanta Center
02:14PM 32.7628 -84.3403 352° North 212 244 7,800 -960 Descending Atlanta Center
02:15PM 32.8169 -84.3503 351° North 212 244 6,800 -900 Descending Atlanta Center
02:16PM 32.8775 -84.3653 348° North 217 250 6,000 -960 Descending Atlanta Center
02:17PM 32.9339 -84.3753 352° North 206 237 4,900 -660 Descending Atlanta Center
02:19PM 33.0333 -84.4000 348° North 171 197 4,000 -360 Descending Atlanta TRACON
02:20PM 33.0833 -84.4167 344° North 167 192 4,000  Level Atlanta TRACON
02:21PM 33.1167 -84.4333 337° Northwest 170 196 4,000  Level Atlanta TRACON
02:22PM 33.1667 -84.4500 344° North 173 199 4,000 -240 Level Atlanta TRACON
02:23PM 33.2167 -84.4667 344° North 179 206 3,600 -420 Descending Atlanta TRACON